Terminal Aerodrome Forecast
Issued by NWS

Home | Current Version | Previous Version | Text Only | Print | Product List | Glossary On
Versions: 1 2 3 4 5 6 7 8 9 10 11 12 13
000
FTUS46 KMFR 231700
TAFRBG
TAF
KRBG 231720Z 2318/2418 17010KT P6SM -SHRA SCT025 OVC050
     FM240200 VRB03KT P6SM -RA SCT020 OVC040
     FM241600 24008KT 5SM -RA BR OVC020=

USA.gov is the U.S. government's official web portal to all federal, state and local government web resources and services.